Terminal Aerodrome Forecast
Issued by NWS

Current Version | Previous Version | Text Only | Print | Product List | Glossary On
Versions: 1 2 3 4 5 6 7 8 9 10 11 12 13 14
798
FTUS41 KLWX 271730
TAFMTN
TAF
KMTN 271730Z 2718/2818 06004KT P6SM BKN045
     FM281400 09004KT P6SM BKN030
     FM281500 10005KT P6SM BKN035=

USA.gov is the U.S. government's official web portal to all federal, state and local government web resources and services.